Time;durP1;ratioP1;P1;durP2;ratioP2;P2;SDS_P1;SDS_P2;PMS_P1;PMS_P2;Temp;Humidity;BMP_temperature;BMP_pressure;BME280_temperature;BME280_humidity;BME280_pressure;Samples;Min_cycle;Max_cycle;Signal;HPM_P1;HPM_P2
2023/01/08 00:01:13;;;;;;;6.30;2.40;;;8.50;99.90;;;;;;5079725;28;25054;-74
2023/01/08 00:03:41;;;;;;;5.15;2.78;;;8.50;99.90;;;;;;5079326;28;25051;-74
2023/01/08 00:06:14;;;;;;;6.57;2.33;;;8.50;99.90;;;;;;5079583;28;25058;-74
2023/01/08 00:08:42;;;;;;;6.70;3.63;;;8.50;99.90;;;;;;5079548;28;25082;-74
2023/01/08 00:11:09;;;;;;;5.97;2.17;;;8.50;99.90;;;;;;5079019;28;25046;-74
2023/01/08 00:13:36;;;;;;;5.00;2.50;;;8.50;99.90;;;;;;5079146;28;25065;-74
2023/01/08 00:16:06;;;;;;;4.97;2.55;;;8.50;99.90;;;;;;5078942;28;25059;-74
2023/01/08 00:18:33;;;;;;;5.22;3.10;;;8.50;99.90;;;;;;5079211;28;25076;-74
2023/01/08 00:21:01;;;;;;;4.10;2.20;;;8.50;99.90;;;;;;5078879;28;25065;-74
2023/01/08 00:23:28;;;;;;;4.70;2.67;;;8.50;99.90;;;;;;5078986;28;25065;-74
2023/01/08 00:25:55;;;;;;;4.40;2.60;;;8.50;99.90;;;;;;5079030;28;25095;-74
2023/01/08 00:28:23;;;;;;;5.45;2.40;;;8.60;99.90;;;;;;5077094;28;25093;-74
2023/01/08 00:30:51;;;;;;;4.38;2.30;;;8.60;99.90;;;;;;5040781;28;25070;-74
2023/01/08 00:33:18;;;;;;;4.10;2.50;;;8.50;99.90;;;;;;5058672;28;25072;-74
2023/01/08 00:35:45;;;;;;;7.25;3.00;;;8.60;99.90;;;;;;5059003;28;25057;-74
2023/01/08 00:38:13;;;;;;;5.22;2.88;;;8.60;99.90;;;;;;5058452;28;25066;-73
2023/01/08 00:40:41;;;;;;;6.13;2.67;;;8.60;99.90;;;;;;5057731;28;25065;-74
2023/01/08 00:43:10;;;;;;;4.45;2.50;;;8.60;99.90;;;;;;5058513;28;25118;-74
2023/01/08 00:45:37;;;;;;;5.72;2.72;;;8.60;99.90;;;;;;5058296;28;25061;-74
2023/01/08 00:48:05;;;;;;;5.40;2.85;;;8.60;99.90;;;;;;5058564;28;25132;-74
2023/01/08 00:50:33;;;;;;;4.40;2.60;;;8.70;99.90;;;;;;5058136;28;25058;-74
2023/01/08 00:53:02;;;;;;;4.93;2.83;;;8.70;99.90;;;;;;5058542;28;25106;-74
2023/01/08 00:55:29;;;;;;;7.18;2.78;;;8.70;99.90;;;;;;5057523;28;25057;-74
2023/01/08 00:57:57;;;;;;;4.82;2.70;;;8.70;99.90;;;;;;5058024;28;25126;-74
2023/01/08 01:00:24;;;;;;;5.70;3.00;;;8.70;99.90;;;;;;5040381;28;25113;-74
2023/01/08 01:02:51;;;;;;;4.57;3.25;;;8.70;99.90;;;;;;5057992;28;25128;-74
2023/01/08 01:05:19;;;;;;;5.25;2.40;;;8.70;99.90;;;;;;5058072;28;25116;-74
2023/01/08 01:07:47;;;;;;;5.65;2.80;;;8.70;99.90;;;;;;5040105;28;25093;-74
2023/01/08 01:10:16;;;;;;;4.97;2.67;;;8.70;99.90;;;;;;5057754;28;25154;-74
2023/01/08 01:12:43;;;;;;;4.55;2.50;;;8.80;99.90;;;;;;5040031;28;25079;-74
2023/01/08 01:15:13;;;;;;;4.63;2.42;;;8.80;99.90;;;;;;5040215;28;25109;-74
2023/01/08 01:17:42;;;;;;;5.20;2.40;;;8.80;99.90;;;;;;5057690;28;25060;-74
2023/01/08 01:20:13;;;;;;;5.85;2.97;;;8.80;99.90;;;;;;5057934;28;25055;-75
2023/01/08 01:22:41;;;;;;;6.40;2.75;;;8.80;99.90;;;;;;5039837;28;25064;-74
2023/01/08 01:25:09;;;;;;;4.68;2.40;;;8.80;99.90;;;;;;5057745;28;25107;-74
2023/01/08 01:27:37;;;;;;;4.07;2.15;;;8.80;99.90;;;;;;5057486;28;25112;-74
2023/01/08 01:30:05;;;;;;;4.70;2.70;;;8.80;99.90;;;;;;5064675;28;25072;-74
2023/01/08 01:32:33;;;;;;;5.90;2.67;;;8.90;99.90;;;;;;5076738;28;20016;-74
2023/01/08 01:35:00;;;;;;;4.82;2.60;;;8.90;99.90;;;;;;5077844;28;25055;-74
2023/01/08 01:37:28;;;;;;;5.03;2.55;;;8.90;99.90;;;;;;5076698;28;25124;-74
2023/01/08 01:39:56;;;;;;;6.90;2.58;;;8.90;99.90;;;;;;5076423;28;25111;-74
2023/01/08 01:42:40;;;;;;;3.60;2.40;;;8.90;99.90;;;;;;5077476;28;25076;-74
2023/01/08 01:45:26;;;;;;;4.18;2.33;;;8.90;99.90;;;;;;5077389;28;25102;-74
2023/01/08 01:48:09;;;;;;;4.63;2.33;;;8.90;99.90;;;;;;5076047;28;25063;-74
2023/01/08 01:50:48;;;;;;;4.60;2.60;;;8.90;99.90;;;;;;5076959;28;25080;-74
2023/01/08 01:53:31;;;;;;;6.07;2.83;;;8.90;99.90;;;;;;5077064;28;25077;-74
2023/01/08 01:55:59;;;;;;;4.47;2.58;;;8.80;99.90;;;;;;5076060;28;25042;-74
2023/01/08 01:58:29;;;;;;;4.97;2.65;;;8.90;99.90;;;;;;5076952;28;25048;-74
2023/01/08 02:00:59;;;;;;;4.90;2.78;;;8.80;99.90;;;;;;5076856;28;25069;-74
2023/01/08 02:03:34;;;;;;;3.95;2.50;;;8.80;99.90;;;;;;5075928;28;25164;-74
2023/01/08 02:06:20;;;;;;;4.97;2.67;;;8.80;99.90;;;;;;5076646;28;25107;-74
2023/01/08 02:09:07;;;;;;;4.30;2.72;;;8.80;99.90;;;;;;5076624;28;25097;-74
2023/01/08 02:12:15;;;;;;;3.50;2.33;;;8.80;99.90;;;;;;5077011;28;25085;-74
2023/01/08 02:15:06;;;;;;;4.40;2.70;;;8.80;99.90;;;;;;5076525;28;25123;-74
2023/01/08 02:17:44;;;;;;;6.85;2.33;;;8.80;99.90;;;;;;5076865;28;25065;-74
2023/01/08 02:20:20;;;;;;;4.22;2.40;;;8.80;99.90;;;;;;5075478;28;25063;-74
2023/01/08 02:23:03;;;;;;;7.82;2.55;;;8.80;99.90;;;;;;5075394;28;25080;-74
2023/01/08 02:26:05;;;;;;;4.20;2.75;;;8.90;99.90;;;;;;5075655;28;25119;-74
2023/01/08 02:28:41;;;;;;;6.63;2.83;;;8.90;99.90;;;;;;5074931;28;25105;-74
2023/01/08 02:31:09;;;;;;;4.97;2.90;;;8.90;99.90;;;;;;5056405;28;25071;-74
2023/01/08 02:33:37;;;;;;;4.30;2.60;;;9.00;99.90;;;;;;5038034;28;25117;-74
2023/01/08 02:36:22;;;;;;;5.20;2.90;;;9.00;99.90;;;;;;5056277;28;25099;-74
2023/01/08 02:39:01;;;;;;;5.35;2.72;;;9.00;99.90;;;;;;5056866;28;25082;-74
2023/01/08 02:41:53;;;;;;;5.32;2.85;;;9.00;99.90;;;;;;5056503;28;25070;-74
2023/01/08 02:44:48;;;;;;;4.47;2.80;;;9.00;99.90;;;;;;5038675;28;25109;-74
2023/01/08 02:47:27;;;;;;;5.28;2.80;;;8.90;99.90;;;;;;5051210;28;25086;-74
2023/01/08 02:50:21;;;;;;;5.28;2.83;;;8.90;99.90;;;;;;5056364;28;25054;-74
2023/01/08 02:53:00;;;;;;;4.88;3.00;;;8.90;99.90;;;;;;5055568;28;25060;-74
2023/01/08 02:55:29;;;;;;;4.13;2.40;;;8.90;99.90;;;;;;5056349;28;25073;-74
2023/01/08 02:57:57;;;;;;;6.93;3.03;;;8.90;99.90;;;;;;5038392;28;25056;-74
2023/01/08 03:00:25;;;;;;;4.65;2.42;;;9.00;99.90;;;;;;5056092;28;25068;-74
2023/01/08 03:03:14;;;;;;;4.07;2.15;;;8.90;99.90;;;;;;5055465;28;25058;-74
2023/01/08 03:05:46;;;;;;;4.32;2.28;;;8.90;99.90;;;;;;5056005;28;25073;-74
2023/01/08 03:08:14;;;;;;;8.40;2.45;;;8.90;99.90;;;;;;5055137;28;25073;-74
2023/01/08 03:10:45;;;;;;;4.60;2.80;;;8.90;99.90;;;;;;5055527;28;25100;-74
2023/01/08 03:13:26;;;;;;;5.35;2.80;;;8.90;99.90;;;;;;5038302;28;25058;-74
2023/01/08 03:16:00;;;;;;;4.97;3.10;;;8.90;99.90;;;;;;5055956;28;25074;-74
2023/01/08 03:18:36;;;;;;;5.60;2.63;;;8.80;99.90;;;;;;5057895;28;25121;-74
2023/01/08 03:21:06;;;;;;;6.63;2.67;;;8.80;99.90;;;;;;5060373;28;25079;-73
2023/01/08 03:23:36;;;;;;;4.18;2.58;;;8.80;99.90;;;;;;5042125;28;25079;-74
2023/01/08 03:26:06;;;;;;;4.95;2.78;;;8.80;99.90;;;;;;5059223;28;25107;-74
2023/01/08 03:28:47;;;;;;;4.40;2.55;;;8.80;99.90;;;;;;5061810;28;25100;-74
2023/01/08 03:31:17;;;;;;;5.07;2.90;;;8.80;99.90;;;;;;5080039;28;25102;-74
2023/01/08 03:33:46;;;;;;;5.22;2.70;;;8.70;99.90;;;;;;5078642;28;25102;-74
2023/01/08 03:36:24;;;;;;;5.35;2.22;;;8.70;99.90;;;;;;5077848;28;25088;-74
2023/01/08 03:39:14;;;;;;;5.10;2.78;;;8.70;99.90;;;;;;5079590;28;25108;-74
2023/01/08 03:41:41;;;;;;;4.90;2.75;;;8.70;99.90;;;;;;5079569;28;25109;-74
2023/01/08 03:44:08;;;;;;;3.90;2.60;;;8.70;99.90;;;;;;5078587;28;25075;-74
2023/01/08 03:46:44;;;;;;;4.47;2.40;;;8.70;99.90;;;;;;5079715;28;25055;-74
2023/01/08 03:49:12;;;;;;;4.72;2.65;;;8.70;99.90;;;;;;5079402;28;25079;-74
2023/01/08 03:51:45;;;;;;;6.55;2.58;;;8.70;99.90;;;;;;5078196;28;25079;-74
2023/01/08 03:54:19;;;;;;;8.13;3.70;;;8.70;99.90;;;;;;5078613;28;25112;-74
2023/01/08 03:56:46;;;;;;;7.38;2.78;;;8.70;99.90;;;;;;5078120;28;25089;-74
2023/01/08 03:59:14;;;;;;;3.70;2.10;;;8.70;99.90;;;;;;5077437;28;25128;-74
2023/01/08 04:01:43;;;;;;;4.18;2.40;;;8.70;99.90;;;;;;5078797;28;25067;-74
2023/01/08 04:04:10;;;;;;;4.53;2.20;;;8.70;99.90;;;;;;5079225;28;25061;-74
2023/01/08 04:06:39;;;;;;;5.10;2.90;;;8.70;99.90;;;;;;5079002;28;25099;-74
2023/01/08 04:09:06;;;;;;;7.13;2.88;;;8.70;99.90;;;;;;5079512;28;25102;-74
2023/01/08 04:11:33;;;;;;;3.75;2.30;;;8.70;99.90;;;;;;5077179;28;25123;-74
2023/01/08 04:14:01;;;;;;;5.70;2.42;;;8.70;99.90;;;;;;5079419;28;25086;-74
2023/01/08 04:16:28;;;;;;;4.18;2.30;;;8.70;99.90;;;;;;5077805;28;25074;-74
2023/01/08 04:18:55;;;;;;;4.93;2.47;;;8.70;99.90;;;;;;5078905;28;25084;-74
2023/01/08 04:21:22;;;;;;;7.63;2.63;;;8.70;99.90;;;;;;5078765;28;25048;-74
2023/01/08 04:23:49;;;;;;;5.97;2.80;;;8.60;99.90;;;;;;5078069;28;25103;-74
2023/01/08 04:26:17;;;;;;;4.43;2.50;;;8.70;99.90;;;;;;5078702;28;25056;-74
2023/01/08 04:28:44;;;;;;;4.68;2.47;;;8.70;99.90;;;;;;5076611;28;25071;-74
2023/01/08 04:31:12;;;;;;;5.63;2.55;;;8.60;99.90;;;;;;5058016;28;25095;-74
2023/01/08 04:33:39;;;;;;;6.18;2.47;;;8.60;99.90;;;;;;5040969;28;25150;-74
2023/01/08 04:36:07;;;;;;;4.75;2.63;;;8.60;99.90;;;;;;5040718;28;25113;-74
2023/01/08 04:38:34;;;;;;;5.40;3.08;;;8.60;99.90;;;;;;5058497;28;25059;-74
2023/01/08 04:41:02;;;;;;;4.63;2.60;;;8.60;99.90;;;;;;5058462;28;25076;-74
2023/01/08 04:43:30;;;;;;;4.80;2.47;;;8.50;99.90;;;;;;5040882;28;25101;-74
2023/01/08 04:46:02;;;;;;;4.43;2.53;;;8.50;99.90;;;;;;5040634;28;25072;-74
2023/01/08 04:48:30;;;;;;;5.03;2.40;;;8.50;99.90;;;;;;5058328;28;25062;-74
2023/01/08 04:51:01;;;;;;;4.50;2.92;;;8.50;99.90;;;;;;5058187;28;25117;-74
2023/01/08 04:53:30;;;;;;;5.70;3.10;;;8.40;99.90;;;;;;5058268;28;25079;-74
2023/01/08 04:56:04;;;;;;;5.88;2.97;;;8.40;99.90;;;;;;5058660;28;25077;-74
2023/01/08 04:58:33;;;;;;;4.43;2.53;;;8.40;99.90;;;;;;5057547;28;25083;-74
2023/01/08 05:01:01;;;;;;;4.63;2.10;;;8.40;99.90;;;;;;5040304;28;25063;-74
2023/01/08 05:03:28;;;;;;;4.28;2.55;;;8.40;99.90;;;;;;5056844;28;25064;-74
2023/01/08 05:05:55;;;;;;;4.47;2.20;;;8.40;99.90;;;;;;5058483;28;25063;-74
2023/01/08 05:08:22;;;;;;;3.55;2.40;;;8.40;99.90;;;;;;5057884;28;25087;-74
2023/01/08 05:10:50;;;;;;;4.30;2.47;;;8.40;99.90;;;;;;5040085;28;25145;-74
2023/01/08 05:13:17;;;;;;;5.75;2.63;;;8.40;99.90;;;;;;5057945;28;25109;-74
2023/01/08 05:15:44;;;;;;;4.80;2.78;;;8.40;99.90;;;;;;5058070;28;25063;-74
2023/01/08 05:18:11;;;;;;;4.50;2.50;;;8.40;99.90;;;;;;5040031;28;25130;-74
2023/01/08 05:20:38;;;;;;;5.35;2.92;;;8.40;99.90;;;;;;5057673;28;25108;-74
2023/01/08 05:23:06;;;;;;;5.43;2.78;;;8.40;99.90;;;;;;5057650;28;25061;-74
2023/01/08 05:25:33;;;;;;;4.05;2.78;;;8.40;99.90;;;;;;5058102;28;25115;-74
2023/01/08 05:28:01;;;;;;;5.65;3.20;;;8.40;99.90;;;;;;5039789;28;25073;-74
2023/01/08 05:30:28;;;;;;;5.05;2.60;;;8.40;99.90;;;;;;5065784;28;25118;-74
2023/01/08 05:32:55;;;;;;;4.03;2.30;;;8.40;99.90;;;;;;5076347;28;25047;-74
2023/01/08 05:35:22;;;;;;;8.70;2.90;;;8.40;99.90;;;;;;5076248;28;25054;-74
2023/01/08 05:37:49;;;;;;;5.03;2.67;;;8.40;99.90;;;;;;5077507;28;25114;-74
2023/01/08 05:40:16;;;;;;;3.60;1.92;;;8.40;99.90;;;;;;5076088;28;25086;-74
2023/01/08 05:42:43;;;;;;;5.22;2.55;;;8.40;99.90;;;;;;5077556;28;25078;-74
2023/01/08 05:45:10;;;;;;;19.88;7.47;;;8.40;99.90;;;;;;5077744;28;25120;-74
2023/01/08 05:47:38;;;;;;;29.27;9.55;;;8.40;99.90;;;;;;5077843;28;25087;-75
2023/01/08 05:50:05;;;;;;;30.95;11.75;;;8.40;99.90;;;;;;5077043;28;25147;-74
2023/01/08 05:52:32;;;;;;;18.63;8.20;;;8.30;99.90;;;;;;5075906;28;25089;-74
2023/01/08 05:55:00;;;;;;;11.95;5.40;;;8.30;99.90;;;;;;5077507;28;25081;-74
2023/01/08 05:57:27;;;;;;;13.57;6.60;;;8.30;99.90;;;;;;5075882;28;25118;-74
2023/01/08 05:59:55;;;;;;;14.13;6.43;;;8.30;99.90;;;;;;5077102;28;25044;-74
2023/01/08 06:02:22;;;;;;;13.65;6.03;;;8.30;99.90;;;;;;5076892;28;25159;-74
2023/01/08 06:04:50;;;;;;;13.07;6.13;;;8.30;99.90;;;;;;5077178;28;25059;-74
2023/01/08 06:07:17;;;;;;;9.05;4.28;;;8.30;99.90;;;;;;5075499;28;25059;-74
2023/01/08 06:09:45;;;;;;;9.18;4.88;;;8.30;99.90;;;;;;5075824;28;25059;-74
2023/01/08 06:12:12;;;;;;;6.18;3.75;;;8.30;99.90;;;;;;5076729;28;25085;-75
2023/01/08 06:14:39;;;;;;;5.30;3.13;;;8.20;99.90;;;;;;5075903;28;25071;-74
2023/01/08 06:17:06;;;;;;;7.03;3.65;;;8.20;99.90;;;;;;5076647;28;25066;-74
2023/01/08 06:19:33;;;;;;;6.80;4.13;;;8.20;99.90;;;;;;5075688;28;25055;-74
2023/01/08 06:22:01;;;;;;;8.20;4.45;;;8.20;99.90;;;;;;5076494;28;25055;-74
2023/01/08 06:24:28;;;;;;;8.13;4.38;;;8.20;99.90;;;;;;5075475;28;25072;-74
2023/01/08 06:26:56;;;;;;;7.90;5.00;;;8.10;99.90;;;;;;5076561;28;25078;-74
2023/01/08 06:29:23;;;;;;;10.38;5.50;;;8.20;99.90;;;;;;5075126;28;25114;-74
2023/01/08 06:31:50;;;;;;;10.65;5.32;;;8.10;99.90;;;;;;5076531;28;24934;-74
2023/01/08 06:34:18;;;;;;;7.95;4.75;;;8.20;99.90;;;;;;5074637;28;25066;-74
2023/01/08 06:36:46;;;;;;;8.90;4.97;;;8.10;99.90;;;;;;5075320;28;25093;-74
2023/01/08 06:39:13;;;;;;;8.88;4.90;;;8.10;99.90;;;;;;5076902;28;25064;-74
2023/01/08 06:41:41;;;;;;;9.00;4.90;;;8.10;99.90;;;;;;5076067;28;25065;-74
2023/01/08 06:44:09;;;;;;;7.97;4.60;;;8.10;99.90;;;;;;5075871;28;25069;-74
2023/01/08 06:46:39;;;;;;;8.63;5.03;;;8.10;99.90;;;;;;5076922;28;25076;-74
2023/01/08 06:49:07;;;;;;;9.00;4.57;;;8.10;99.90;;;;;;5076444;28;25059;-74
2023/01/08 06:51:34;;;;;;;10.25;5.32;;;8.10;99.90;;;;;;5076476;28;25113;-74
2023/01/08 06:54:02;;;;;;;7.78;4.90;;;8.10;99.90;;;;;;5074620;28;25085;-74
2023/01/08 06:56:29;;;;;;;8.65;4.90;;;8.10;99.90;;;;;;5076664;28;25109;-74
2023/01/08 06:58:56;;;;;;;6.82;4.22;;;8.10;99.90;;;;;;5075157;28;25103;-74
2023/01/08 07:01:23;;;;;;;7.95;3.90;;;8.10;99.90;;;;;;5075106;28;25089;-74
2023/01/08 07:03:51;;;;;;;6.88;4.55;;;8.10;99.90;;;;;;5075539;28;25132;-74
2023/01/08 07:06:20;;;;;;;6.05;4.57;;;8.10;99.90;;;;;;5073475;28;25136;-74
2023/01/08 07:08:48;;;;;;;7.78;4.45;;;8.10;99.90;;;;;;5074304;28;25081;-74
2023/01/08 07:11:15;;;;;;;10.00;4.32;;;8.20;99.90;;;;;;5075805;28;25061;-74
2023/01/08 07:13:43;;;;;;;9.52;4.13;;;8.20;99.90;;;;;;5075755;28;25116;-74
2023/01/08 07:16:12;;;;;;;9.00;4.30;;;8.20;99.90;;;;;;5074749;28;25101;-74
2023/01/08 07:18:39;;;;;;;7.88;4.20;;;8.20;99.90;;;;;;5075201;28;25066;-74
2023/01/08 07:21:07;;;;;;;6.60;4.10;;;8.20;99.90;;;;;;5075888;28;25149;-74
2023/01/08 07:23:35;;;;;;;9.63;4.43;;;8.20;99.90;;;;;;5076112;28;25109;-74
2023/01/08 07:26:03;;;;;;;7.45;4.70;;;8.20;99.90;;;;;;5075904;28;25115;-74
2023/01/08 07:28:31;;;;;;;7.43;4.43;;;8.20;99.90;;;;;;5074100;28;25072;-74
2023/01/08 07:31:03;;;;;;;7.22;4.18;;;8.20;99.90;;;;;;5058992;28;25083;-81
2023/01/08 07:33:32;;;;;;;8.43;5.13;;;8.20;99.90;;;;;;5038268;28;25078;-82
2023/01/08 07:35:59;;;;;;;6.88;4.07;;;8.20;99.90;;;;;;5056083;28;25111;-82
2023/01/08 07:38:27;;;;;;;6.22;3.58;;;8.20;99.90;;;;;;5038008;28;25082;-81
2023/01/08 07:40:56;;;;;;;5.50;3.63;;;8.20;99.90;;;;;;5038062;28;25105;-77
2023/01/08 07:43:25;;;;;;;6.07;3.83;;;8.20;99.90;;;;;;5038167;28;25078;-74
2023/01/08 07:45:52;;;;;;;6.65;3.70;;;8.20;99.90;;;;;;5055916;28;25056;-89
2023/01/08 07:48:19;;;;;;;6.72;3.70;;;8.20;99.90;;;;;;5038077;28;25126;-81
2023/01/08 07:50:46;;;;;;;6.10;3.63;;;8.20;99.90;;;;;;5055652;28;25151;-81
2023/01/08 07:53:16;;;;;;;5.05;3.17;;;8.20;99.90;;;;;;5037293;28;25108;-76
2023/01/08 07:55:44;;;;;;;6.18;3.40;;;8.20;99.90;;;;;;5055616;28;25084;-74
2023/01/08 07:58:13;;;;;;;6.90;3.78;;;8.20;99.90;;;;;;5038572;28;25118;-72
2023/01/08 08:00:41;;;;;;;5.53;3.35;;;8.20;99.90;;;;;;5055516;28;25077;-73
2023/01/08 08:03:10;;;;;;;4.95;3.28;;;8.20;99.90;;;;;;5055530;28;25110;-73
2023/01/08 08:05:37;;;;;;;4.88;3.17;;;8.20;99.90;;;;;;5057615;28;25351;-74
2023/01/08 08:08:09;;;;;;;4.72;2.97;;;8.30;99.90;;;;;;5059013;28;25076;-72
2023/01/08 08:10:38;;;;;;;5.18;3.20;;;8.20;99.90;;;;;;5059496;28;25146;-74
2023/01/08 08:13:05;;;;;;;4.78;2.95;;;8.20;99.90;;;;;;5041329;28;25076;-71
2023/01/08 08:15:34;;;;;;;5.22;3.38;;;8.30;99.90;;;;;;5059220;28;25070;-71
2023/01/08 08:18:02;;;;;;;5.18;3.15;;;8.20;99.90;;;;;;5058923;28;25066;-71
2023/01/08 08:20:29;;;;;;;6.55;3.70;;;8.30;99.90;;;;;;5058733;28;25057;-71
2023/01/08 08:23:12;;;;;;;5.28;3.33;;;8.30;99.90;;;;;;5059102;28;25148;-71
2023/01/08 08:25:41;;;;;;;5.82;3.45;;;8.30;99.90;;;;;;5058956;28;25061;-70
2023/01/08 08:28:10;;;;;;;6.95;3.17;;;8.30;99.90;;;;;;5057643;28;25108;-68
2023/01/08 08:30:39;;;;;;;5.45;3.50;;;8.40;99.90;;;;;;5058590;28;25076;-68
2023/01/08 08:33:06;;;;;;;4.47;2.83;;;8.40;99.90;;;;;;5058799;28;25059;-68
2023/01/08 08:35:35;;;;;;;5.68;3.50;;;8.40;99.90;;;;;;5040889;28;25075;-70
2023/01/08 08:38:02;;;;;;;4.88;3.17;;;8.40;99.90;;;;;;5058635;28;25114;-72
2023/01/08 08:40:31;;;;;;;5.22;3.25;;;8.50;99.90;;;;;;5058462;28;25076;-72
2023/01/08 08:43:00;;;;;;;5.40;3.30;;;8.50;99.90;;;;;;5059143;28;25091;-72
2023/01/08 08:45:28;;;;;;;4.50;2.40;;;8.50;99.90;;;;;;5058881;28;25073;-72
2023/01/08 08:47:56;;;;;;;6.82;4.10;;;8.50;99.90;;;;;;5059003;28;25063;-72
2023/01/08 08:50:23;;;;;;;4.97;2.10;;;8.50;99.90;;;;;;5043467;28;25107;-72
2023/01/08 08:52:51;;;;;;;4.10;2.42;;;8.50;99.90;;;;;;5040912;28;25056;-72
2023/01/08 08:55:19;;;;;;;8.27;3.83;;;8.60;99.90;;;;;;5058740;28;25109;-72
2023/01/08 08:57:48;;;;;;;9.60;4.07;;;8.60;99.90;;;;;;5058129;28;25105;-72
2023/01/08 09:00:15;;;;;;;6.65;3.67;;;8.60;99.90;;;;;;5058365;28;25043;-72
2023/01/08 09:02:43;;;;;;;6.15;3.83;;;8.60;99.90;;;;;;5040560;28;25082;-72
2023/01/08 09:05:10;;;;;;;6.43;3.80;;;8.60;99.90;;;;;;5058032;28;25074;-72
2023/01/08 09:07:38;;;;;;;9.25;6.03;;;8.60;99.90;;;;;;5057988;28;25114;-72
2023/01/08 09:10:06;;;;;;;3.65;2.25;;;8.60;99.90;;;;;;5040330;28;25128;-72
2023/01/08 09:12:33;;;;;;;6.82;4.53;;;8.60;99.90;;;;;;5057882;28;25087;-72
2023/01/08 09:15:00;;;;;;;7.07;3.92;;;8.60;99.90;;;;;;5040134;28;25073;-72
2023/01/08 09:17:27;;;;;;;5.00;2.22;;;8.60;99.90;;;;;;5039858;28;25045;-72
2023/01/08 09:19:54;;;;;;;3.85;2.22;;;8.60;99.90;;;;;;5040020;28;25117;-72
2023/01/08 09:22:22;;;;;;;4.20;2.47;;;8.60;99.90;;;;;;5058132;28;25121;-72
2023/01/08 09:24:49;;;;;;;3.97;2.20;;;8.60;99.90;;;;;;5057906;28;25126;-72
2023/01/08 09:27:16;;;;;;;4.55;2.08;;;8.60;99.90;;;;;;5057725;28;25069;-73
2023/01/08 09:29:43;;;;;;;3.95;1.90;;;8.60;99.90;;;;;;5048577;28;25078;-73
2023/01/08 09:32:11;;;;;;;2.30;1.42;;;8.70;99.90;;;;;;5077783;28;25058;-72
2023/01/08 09:34:39;;;;;;;3.78;1.95;;;8.80;99.90;;;;;;5077699;28;25147;-73
2023/01/08 09:37:06;;;;;;;3.25;1.95;;;8.90;99.90;;;;;;5077630;28;25114;-72
2023/01/08 09:39:35;;;;;;;3.20;1.60;;;8.90;99.90;;;;;;5077618;28;25062;-72
2023/01/08 09:42:04;;;;;;;2.25;1.40;;;8.90;99.90;;;;;;5076268;28;25064;-72
2023/01/08 09:44:37;;;;;;;4.63;1.67;;;9.00;99.90;;;;;;5076042;28;25076;-72
2023/01/08 09:47:24;;;;;;;4.30;1.70;;;9.10;99.90;;;;;;5077241;28;25140;-71
2023/01/08 09:49:57;;;;;;;2.00;1.40;;;9.10;99.90;;;;;;5077644;28;25057;-72
2023/01/08 09:52:25;;;;;;;2.30;1.50;;;9.10;99.90;;;;;;5076276;28;25066;-71
2023/01/08 09:54:53;;;;;;;4.35;1.50;;;9.20;99.90;;;;;;5078394;28;25057;-71
2023/01/08 09:57:21;;;;;;;2.75;1.45;;;9.20;99.90;;;;;;5077241;28;25078;-71
2023/01/08 09:59:49;;;;;;;2.72;1.50;;;9.20;99.90;;;;;;5075927;28;25143;-71
2023/01/08 10:02:23;;;;;;;4.18;1.38;;;9.20;99.90;;;;;;5075878;28;25070;-71
2023/01/08 10:04:59;;;;;;;3.15;1.55;;;9.20;99.90;;;;;;5077456;28;25054;-71
2023/01/08 10:07:29;;;;;;;2.10;1.30;;;9.20;99.90;;;;;;5077239;28;25123;-71
2023/01/08 10:09:57;;;;;;;2.55;1.60;;;9.20;99.90;;;;;;5077032;28;25122;-70
2023/01/08 10:12:28;;;;;;;4.05;1.50;;;9.10;99.90;;;;;;5078192;28;25055;-70
2023/01/08 10:15:04;;;;;;;2.75;1.33;;;9.10;99.90;;;;;;5077302;28;25067;-70
2023/01/08 10:17:50;;;;;;;2.10;1.50;;;9.10;99.90;;;;;;5076857;28;25105;-70
2023/01/08 10:20:23;;;;;;;2.40;1.77;;;9.10;99.90;;;;;;5077479;28;25058;-70
2023/01/08 10:22:55;;;;;;;4.93;1.42;;;9.00;99.90;;;;;;5076775;28;25174;-71
2023/01/08 10:25:26;;;;;;;3.05;1.60;;;9.00;99.90;;;;;;5076945;28;25119;-70
2023/01/08 10:28:04;;;;;;;2.33;0.90;;;9.00;99.90;;;;;;5076420;28;25054;-70
2023/01/08 10:30:41;;;;;;;2.60;1.40;;;9.00;99.90;;;;;;5063640;28;25100;-71
2023/01/08 10:33:29;;;;;;;2.78;1.48;;;9.10;99.90;;;;;;5056465;28;25081;-70
2023/01/08 10:36:12;;;;;;;1.98;1.25;;;9.10;99.90;;;;;;5038705;28;25119;-71
2023/01/08 10:38:56;;;;;;;2.53;1.10;;;9.20;99.90;;;;;;5038698;28;25105;-71
2023/01/08 10:41:23;;;;;;;4.43;1.33;;;9.20;99.90;;;;;;5056635;28;25095;-70
2023/01/08 10:43:57;;;;;;;2.35;1.20;;;9.20;99.90;;;;;;5055759;28;25096;-71
2023/01/08 10:46:35;;;;;;;2.47;0.65;;;9.30;99.90;;;;;;5056307;28;25124;-71
2023/01/08 10:49:06;;;;;;;3.60;1.40;;;9.30;99.90;;;;;;5057140;28;25057;-70
2023/01/08 10:51:34;;;;;;;1.60;0.95;;;9.30;99.90;;;;;;5056257;28;25081;-70
2023/01/08 10:54:23;;;;;;;1.52;1.08;;;9.40;99.90;;;;;;5038947;28;25110;-69
2023/01/08 10:56:51;;;;;;;2.20;0.75;;;9.40;99.90;;;;;;5056673;28;25121;-70
2023/01/08 10:59:23;;;;;;;2.58;1.00;;;9.40;99.90;;;;;;5038616;28;25145;-71
2023/01/08 11:01:54;;;;;;;1.50;0.90;;;9.40;99.90;;;;;;5057082;28;25086;-71
2023/01/08 11:04:35;;;;;;;2.33;0.80;;;9.40;99.90;;;;;;5056015;28;25067;-71
2023/01/08 11:07:05;;;;;;;1.67;0.90;;;9.40;99.90;;;;;;5056398;28;25048;-71
2023/01/08 11:09:55;;;;;;;1.83;0.82;;;9.40;99.90;;;;;;5056288;28;25067;-69
2023/01/08 11:12:26;;;;;;;2.20;0.93;;;9.40;99.90;;;;;;5056298;28;25068;-69
2023/01/08 11:14:53;;;;;;;1.77;0.98;;;9.30;99.90;;;;;;5056522;28;25095;-69
2023/01/08 11:17:27;;;;;;;1.77;0.70;;;9.40;99.90;;;;;;5056647;28;25062;-71
2023/01/08 11:19:54;;;;;;;2.42;1.27;;;9.40;99.90;;;;;;5055994;28;25057;-70
2023/01/08 11:22:24;;;;;;;1.48;0.70;;;9.40;99.90;;;;;;5056132;28;25072;-70
2023/01/08 11:24:52;;;;;;;2.72;0.68;;;9.40;99.90;;;;;;5056468;28;25089;-70
2023/01/08 11:27:39;;;;;;;1.55;0.75;;;9.40;99.90;;;;;;5056012;28;25067;-69
2023/01/08 11:30:24;;;;;;;1.80;0.70;;;9.50;99.90;;;;;;5053029;28;25068;-69
2023/01/08 11:33:17;;;;;;;1.00;0.43;;;9.50;99.90;;;;;;5075186;28;25151;-70
2023/01/08 11:35:53;;;;;;;1.10;0.70;;;9.60;99.90;;;;;;5075736;28;25060;-69
2023/01/08 11:38:21;;;;;;;2.28;0.80;;;9.70;99.90;;;;;;5076359;28;25085;-70
2023/01/08 11:41:17;;;;;;;4.07;0.95;;;9.80;99.90;;;;;;5079468;28;25052;-70
2023/01/08 11:43:54;;;;;;;5.03;0.70;;;9.80;99.90;;;;;;5078502;28;25072;-69
2023/01/08 11:46:37;;;;;;;1.17;0.60;;;10.00;99.90;;;;;;5080110;28;25106;-71
2023/01/08 11:49:37;;;;;;;1.80;0.70;;;10.10;99.90;;;;;;5078201;28;25077;-70
2023/01/08 11:52:34;;;;;;;2.40;0.57;;;10.20;99.90;;;;;;5079447;28;25134;-70
2023/01/08 11:55:19;;;;;;;5.55;0.73;;;10.20;99.90;;;;;;5079842;28;25131;-71
2023/01/08 11:58:04;;;;;;;2.38;0.55;;;10.30;99.90;;;;;;5079664;28;25118;-71
2023/01/08 12:00:42;;;;;;;4.00;0.70;;;10.30;99.90;;;;;;5079221;28;25059;-73
2023/01/08 12:03:45;;;;;;;2.80;0.93;;;10.40;99.90;;;;;;5079942;28;25099;-78
2023/01/08 12:06:28;;;;;;;3.75;1.23;;;10.40;99.90;;;;;;5079305;28;25075;-69
2023/01/08 12:09:13;;;;;;;9.93;2.70;;;10.30;99.90;;;;;;5079278;28;25069;-74
2023/01/08 12:11:58;;;;;;;6.15;0.98;;;10.30;99.90;;;;;;5079256;28;25096;-68
2023/01/08 12:14:47;;;;;;;6.60;2.67;;;10.30;99.90;;;;;;5079709;28;25138;-69
2023/01/08 12:17:47;;;;;;;9.07;3.15;;;10.30;99.90;;;;;;5079887;28;25065;-68
2023/01/08 12:20:37;;;;;;;3.80;1.70;;;10.20;99.90;;;;;;5078844;28;25075;-69
2023/01/08 12:23:40;;;;;;;6.88;0.85;;;10.20;99.90;;;;;;5078929;28;25067;-69
2023/01/08 12:26:46;;;;;;;3.15;0.50;;;10.20;99.90;;;;;;5079188;28;25058;-68
2023/01/08 12:29:23;;;;;;;8.40;1.08;;;10.20;99.90;;;;;;5077174;28;25061;-69
2023/01/08 12:32:09;;;;;;;4.47;0.77;;;10.20;99.90;;;;;;5058621;28;25066;-70
2023/01/08 12:34:46;;;;;;;9.25;2.15;;;10.20;99.90;;;;;;5040535;28;25126;-69
2023/01/08 12:37:46;;;;;;;11.98;2.78;;;10.20;99.90;;;;;;5058691;28;25076;-72
2023/01/08 12:40:20;;;;;;;19.15;5.82;;;10.20;99.90;;;;;;5058881;28;25096;-72
2023/01/08 12:42:49;;;;;;;12.70;4.00;;;10.20;99.90;;;;;;5058510;28;25115;-72
2023/01/08 12:45:28;;;;;;;14.13;3.55;;;10.20;99.90;;;;;;5040630;28;25084;-72
2023/01/08 12:48:11;;;;;;;5.35;1.70;;;10.20;99.90;;;;;;5058584;28;25108;-72
2023/01/08 12:51:17;;;;;;;14.05;5.35;;;10.10;99.90;;;;;;5057313;28;25138;-72
2023/01/08 12:54:01;;;;;;;4.65;1.50;;;10.00;99.90;;;;;;5058020;28;25071;-72
2023/01/08 12:57:01;;;;;;;12.90;3.20;;;9.90;99.90;;;;;;5058488;28;25051;-72
2023/01/08 13:00:03;;;;;;;13.63;4.75;;;9.90;99.90;;;;;;5058507;28;25097;-72
2023/01/08 13:02:49;;;;;;;5.55;1.38;;;9.90;99.90;;;;;;5058427;28;25067;-72
2023/01/08 13:05:20;;;;;;;2.60;0.63;;;9.80;99.90;;;;;;5058669;28;25068;-72
2023/01/08 13:07:59;;;;;;;7.72;2.65;;;9.80;99.90;;;;;;5040413;28;25052;-72
2023/01/08 13:10:35;;;;;;;3.03;0.55;;;9.80;99.90;;;;;;5040341;28;25084;-72
2023/01/08 13:13:02;;;;;;;14.23;4.00;;;9.80;99.90;;;;;;5057934;28;25101;-72
2023/01/08 13:15:31;;;;;;;4.93;1.25;;;9.90;99.90;;;;;;5040187;28;25070;-72
2023/01/08 13:18:19;;;;;;;20.15;5.47;;;9.90;99.90;;;;;;5040209;28;25063;-72
2023/01/08 13:21:01;;;;;;;10.70;3.55;;;9.90;99.90;;;;;;5057749;28;25118;-72
2023/01/08 13:23:34;;;;;;;3.72;1.27;;;10.00;99.90;;;;;;5057806;28;25106;-72